Time;durP1;ratioP1;P1;durP2;ratioP2;P2;SDS_P1;SDS_P2;PMS_P1;PMS_P2;Temp;Humidity;BMP_temperature;BMP_pressure;BME280_temperature;BME280_humidity;BME280_pressure;Samples;Min_cycle;Max_cycle;Signal;HPM_P1;HPM_P2
2023/02/18 00:00:51;;;;;;;10.55;5.78;;;;;;;;;;5059278;28;20475;-75
2023/02/18 00:03:17;;;;;;;8.52;5.63;;;;;;;;;;5057710;28;20025;-76
2023/02/18 00:05:43;;;;;;;9.25;6.20;;;;;;;;;;5057434;28;20032;-76
2023/02/18 00:08:09;;;;;;;7.38;5.88;;;;;;;;;;5051414;28;20021;-76
2023/02/18 00:10:35;;;;;;;9.80;6.30;;;;;;;;;;5046430;28;20457;-76
2023/02/18 00:13:01;;;;;;;12.38;7.00;;;;;;;;;;5050337;28;20058;-76
2023/02/18 00:15:27;;;;;;;11.73;6.53;;;;;;;;;;5041588;28;20028;-76
2023/02/18 00:17:53;;;;;;;10.73;7.03;;;;;;;;;;5056037;28;20017;-76
2023/02/18 00:20:19;;;;;;;11.90;6.93;;;;;;;;;;5039027;28;20024;-76
2023/02/18 00:22:45;;;;;;;11.40;7.13;;;;;;;;;;5028969;28;20091;-76
2023/02/18 00:25:11;;;;;;;11.07;7.22;;;;;;;;;;5054025;28;20029;-76
2023/02/18 00:27:37;;;;;;;9.63;6.63;;;;;;;;;;5055640;28;20391;-77
2023/02/18 00:30:03;;;;;;;11.35;6.60;;;;;;;;;;5055815;28;20032;-76
2023/02/18 00:32:29;;;;;;;13.25;7.30;;;;;;;;;;5049515;28;20029;-76
2023/02/18 00:34:55;;;;;;;16.80;8.07;;;;;;;;;;5048424;28;20021;-76
2023/02/18 00:37:21;;;;;;;13.20;8.23;;;;;;;;;;5055580;28;20025;-75
2023/02/18 00:39:47;;;;;;;12.05;8.35;;;;;;;;;;5056899;28;20032;-76
2023/02/18 00:42:13;;;;;;;13.65;8.48;;;;;;;;;;5056711;28;20056;-76
2023/02/18 00:44:39;;;;;;;12.50;8.35;;;;;;;;;;5057324;28;20025;-75
2023/02/18 00:47:05;;;;;;;13.15;7.93;;;;;;;;;;5060651;28;20080;-75
2023/02/18 00:49:32;;;;;;;13.85;9.05;;;;;;;;;;5043788;28;20029;-75
2023/02/18 00:51:58;;;;;;;12.23;8.65;;;;;;;;;;5035385;28;20060;-75
2023/02/18 00:54:24;;;;;;;14.07;8.85;;;;;;;;;;5044368;28;20024;-75
2023/02/18 00:56:50;;;;;;;14.93;9.20;;;;;;;;;;5039060;28;20035;-75
2023/02/18 00:59:16;;;;;;;15.93;9.43;;;;;;;;;;5076908;22;20064;-76
2023/02/18 01:01:42;;;;;;;14.73;9.10;;;;;;;;;;5054118;28;20513;-75
2023/02/18 01:04:08;;;;;;;15.10;9.43;;;;;;;;;;5058507;28;20020;-74
2023/02/18 01:06:34;;;;;;;11.50;8.32;;;;;;;;;;5073588;28;20021;-74
2023/02/18 01:09:00;;;;;;;14.27;9.40;;;;;;;;;;5072325;28;20082;-74
2023/02/18 01:11:26;;;;;;;16.50;8.18;;;;;;;;;;5073370;28;20024;-74
2023/02/18 01:13:52;;;;;;;12.73;6.90;;;;;;;;;;5073154;28;20028;-75
2023/02/18 01:16:18;;;;;;;14.63;7.70;;;;;;;;;;5073480;28;20025;-74
2023/02/18 01:18:44;;;;;;;10.18;6.60;;;;;;;;;;5053738;28;20119;-75
2023/02/18 01:21:10;;;;;;;6.68;5.68;;;;;;;;;;5053284;28;20056;-74
2023/02/18 01:23:37;;;;;;;15.52;6.60;;;;;;;;;;5050939;28;20030;-75
2023/02/18 01:26:03;;;;;;;9.82;5.35;;;;;;;;;;5072172;28;20020;-75
2023/02/18 01:28:29;;;;;;;10.75;6.32;;;;;;;;;;5072573;28;20067;-75
2023/02/18 01:30:55;;;;;;;7.80;4.55;;;;;;;;;;5071703;28;20024;-74
2023/02/18 01:33:21;;;;;;;7.47;4.32;;;;;;;;;;5057537;28;20151;-75
2023/02/18 01:35:48;;;;;;;8.85;5.07;;;;;;;;;;5052684;28;20112;-74
2023/02/18 01:38:14;;;;;;;10.07;4.20;;;;;;;;;;5052078;28;20021;-74
2023/02/18 01:40:50;;;;;;;7.40;4.57;;;;;;;;;;5051596;28;20028;-74
2023/02/18 01:43:16;;;;;;;6.35;3.00;;;;;;;;;;5052704;28;20473;-74
2023/02/18 01:45:56;;;;;;;9.95;4.82;;;;;;;;;;5052706;28;20384;-75
2023/02/18 01:48:22;;;;;;;8.30;2.92;;;;;;;;;;5052026;28;20391;-75
2023/02/18 01:50:50;;;;;;;8.32;2.55;;;;;;;;;;5052929;28;20031;-74
2023/02/18 01:53:20;;;;;;;5.93;2.40;;;;;;;;;;5066154;28;20040;-74
2023/02/18 01:55:47;;;;;;;9.93;2.45;;;;;;;;;;5072514;28;20103;-75
2023/02/18 01:58:13;;;;;;;4.93;1.73;;;;;;;;;;5071858;28;20021;-76
2023/02/18 02:00:39;;;;;;;9.65;2.63;;;;;;;;;;5072339;28;20032;-77
2023/02/18 02:03:05;;;;;;;6.70;2.33;;;;;;;;;;5072428;28;20447;-76
2023/02/18 02:05:32;;;;;;;9.85;3.03;;;;;;;;;;5072216;28;20450;-75
2023/02/18 02:07:58;;;;;;;7.13;2.38;;;;;;;;;;5044825;28;20021;-75
2023/02/18 02:10:25;;;;;;;8.65;1.85;;;;;;;;;;5045960;28;20029;-74
2023/02/18 02:13:00;;;;;;;7.40;1.80;;;;;;;;;;5045222;28;20112;-75
2023/02/18 02:15:45;;;;;;;7.00;1.80;;;;;;;;;;5033516;28;20021;-74
2023/02/18 02:18:23;;;;;;;7.60;2.45;;;;;;;;;;5037437;28;20027;-73
2023/02/18 02:20:49;;;;;;;7.72;2.03;;;;;;;;;;5052362;28;20029;-75
2023/02/18 02:23:34;;;;;;;7.95;1.77;;;;;;;;;;5051001;28;20070;-75
2023/02/18 02:26:15;;;;;;;7.63;1.85;;;;;;;;;;5036226;28;20017;-75
2023/02/18 02:28:44;;;;;;;7.05;2.17;;;;;;;;;;5051081;28;20483;-74
2023/02/18 02:31:10;;;;;;;10.15;2.85;;;;;;;;;;5051823;28;20025;-74
2023/02/18 02:33:48;;;;;;;10.40;2.40;;;;;;;;;;5051705;28;20021;-74
2023/02/18 02:36:17;;;;;;;8.68;2.15;;;;;;;;;;5051922;28;20025;-74
2023/02/18 02:38:48;;;;;;;8.05;2.20;;;;;;;;;;5050985;28;20036;-75
2023/02/18 02:41:24;;;;;;;8.27;2.78;;;;;;;;;;5051737;28;20431;-75
2023/02/18 02:44:01;;;;;;;7.15;2.10;;;;;;;;;;5051675;28;20048;-75
2023/02/18 02:46:54;;;;;;;9.07;1.83;;;;;;;;;;5051770;28;20415;-75
2023/02/18 02:49:29;;;;;;;7.40;1.95;;;;;;;;;;5043361;28;20041;-75
2023/02/18 02:52:02;;;;;;;7.72;2.05;;;;;;;;;;5050896;28;20021;-74
2023/02/18 02:54:29;;;;;;;7.10;1.38;;;;;;;;;;5051292;28;20082;-74
2023/02/18 02:57:24;;;;;;;10.68;2.85;;;;;;;;;;5071507;28;20039;-75
2023/02/18 02:59:54;;;;;;;6.63;1.83;;;;;;;;;;5024804;28;20059;-75
2023/02/18 03:02:39;;;;;;;9.30;2.47;;;;;;;;;;5051442;28;20025;-75
2023/02/18 03:05:25;;;;;;;10.77;2.63;;;;;;;;;;5051771;28;20029;-75
2023/02/18 03:07:57;;;;;;;11.95;2.30;;;;;;;;;;5025525;28;20386;-75
2023/02/18 03:10:29;;;;;;;7.65;2.25;;;;;;;;;;5071106;28;20070;-76
2023/02/18 03:13:14;;;;;;;6.47;1.88;;;;;;;;;;5071715;28;20050;-76
2023/02/18 03:15:48;;;;;;;6.95;2.40;;;;;;;;;;5073469;28;20042;-76
2023/02/18 03:18:16;;;;;;;11.52;2.55;;;;;;;;;;5065307;28;20025;-76
2023/02/18 03:20:48;;;;;;;4.80;1.70;;;;;;;;;;5051020;28;20032;-77
2023/02/18 03:23:17;;;;;;;8.80;2.55;;;;;;;;;;5047568;28;20100;-75
2023/02/18 03:25:43;;;;;;;10.25;2.63;;;;;;;;;;5056651;28;20105;-76
2023/02/18 03:28:17;;;;;;;5.10;1.70;;;;;;;;;;5057078;28;20017;-75
2023/02/18 03:30:49;;;;;;;9.68;2.28;;;;;;;;;;5055122;28;20037;-75
2023/02/18 03:33:19;;;;;;;8.32;2.50;;;;;;;;;;5058715;28;20059;-75
2023/02/18 03:35:46;;;;;;;8.38;2.75;;;;;;;;;;5061417;28;20025;-76
2023/02/18 03:38:16;;;;;;;5.85;1.48;;;;;;;;;;5064510;28;20122;-75
2023/02/18 03:40:42;;;;;;;12.57;2.95;;;;;;;;;;5062365;28;20029;-75
2023/02/18 03:43:08;;;;;;;7.45;1.85;;;;;;;;;;5063160;28;20052;-75
2023/02/18 03:45:35;;;;;;;9.13;2.17;;;;;;;;;;5057298;28;20045;-75
2023/02/18 03:48:01;;;;;;;10.13;2.15;;;;;;;;;;5076836;28;20047;-75
2023/02/18 03:50:27;;;;;;;7.88;2.42;;;;;;;;;;5071913;28;20468;-75
2023/02/18 03:52:53;;;;;;;7.20;2.38;;;;;;;;;;5074505;28;20600;-75
2023/02/18 03:55:19;;;;;;;10.40;2.83;;;;;;;;;;5074928;28;20032;-74
2023/02/18 03:57:45;;;;;;;12.60;2.80;;;;;;;;;;5046703;28;20029;-75
2023/02/18 04:00:11;;;;;;;9.48;2.38;;;;;;;;;;5049468;28;20036;-74
2023/02/18 04:02:37;;;;;;;7.18;2.22;;;;;;;;;;5049560;28;20033;-73
2023/02/18 04:05:03;;;;;;;9.52;3.13;;;;;;;;;;5049525;28;20540;-74
2023/02/18 04:07:29;;;;;;;10.77;2.38;;;;;;;;;;5049933;28;20036;-74
2023/02/18 04:09:55;;;;;;;7.25;2.05;;;;;;;;;;5050398;28;20086;-75
2023/02/18 04:12:21;;;;;;;5.03;2.15;;;;;;;;;;5050404;28;20487;-74
2023/02/18 04:14:47;;;;;;;16.00;2.70;;;;;;;;;;5050430;28;20033;-74
2023/02/18 04:17:13;;;;;;;13.50;2.53;;;;;;;;;;5049151;28;20021;-74
2023/02/18 04:19:39;;;;;;;11.20;2.53;;;;;;;;;;5049368;28;20502;-73
2023/02/18 04:22:05;;;;;;;10.20;2.20;;;;;;;;;;5051015;28;20029;-72
2023/02/18 04:24:31;;;;;;;10.40;2.67;;;;;;;;;;5056147;28;20024;-76
2023/02/18 04:26:57;;;;;;;10.05;3.15;;;;;;;;;;5070619;28;20021;-73
2023/02/18 04:29:23;;;;;;;6.72;2.63;;;;;;;;;;5054410;28;20108;-74
2023/02/18 04:31:49;;;;;;;13.82;3.88;;;;;;;;;;5050347;28;20475;-75
2023/02/18 04:34:15;;;;;;;8.63;3.65;;;;;;;;;;5049134;28;20028;-74
2023/02/18 04:36:41;;;;;;;9.95;2.92;;;;;;;;;;5050086;28;20025;-74
2023/02/18 04:39:07;;;;;;;8.15;3.28;;;;;;;;;;5051757;28;20029;-74
2023/02/18 04:41:33;;;;;;;9.93;3.85;;;;;;;;;;5053972;28;20025;-74
2023/02/18 04:43:59;;;;;;;10.70;3.17;;;;;;;;;;5053968;28;20433;-75
2023/02/18 04:46:25;;;;;;;10.15;3.55;;;;;;;;;;5053925;28;20100;-74
2023/02/18 04:48:51;;;;;;;12.90;4.15;;;;;;;;;;5051767;28;20037;-75
2023/02/18 04:51:17;;;;;;;14.63;4.57;;;;;;;;;;5054246;28;20025;-74
2023/02/18 04:53:43;;;;;;;15.25;4.68;;;;;;;;;;5054494;28;20082;-76
2023/02/18 04:56:09;;;;;;;11.27;4.47;;;;;;;;;;5054129;28;20017;-74
2023/02/18 04:58:35;;;;;;;15.77;4.95;;;;;;;;;;5054663;28;20124;-75
2023/02/18 05:01:02;;;;;;;6.20;3.45;;;;;;;;;;5073852;28;20028;-75
2023/02/18 05:03:28;;;;;;;8.18;3.38;;;;;;;;;;5073878;28;20500;-75
2023/02/18 05:05:54;;;;;;;8.25;3.80;;;;;;;;;;5072816;28;20048;-75
2023/02/18 05:08:20;;;;;;;10.20;4.07;;;;;;;;;;5073466;28;20059;-75
2023/02/18 05:10:46;;;;;;;10.00;3.78;;;;;;;;;;5073265;28;20382;-74
2023/02/18 05:13:13;;;;;;;9.48;4.05;;;;;;;;;;5067529;28;20021;-75
2023/02/18 05:15:39;;;;;;;10.32;3.72;;;;;;;;;;5053806;28;20104;-74
2023/02/18 05:18:05;;;;;;;13.10;4.13;;;;;;;;;;5053067;28;20024;-75
2023/02/18 05:20:31;;;;;;;8.02;3.75;;;;;;;;;;5053137;28;20185;-75
2023/02/18 05:22:57;;;;;;;11.23;4.10;;;;;;;;;;5053280;28;20021;-74
2023/02/18 05:25:23;;;;;;;9.90;4.43;;;;;;;;;;5064084;28;20111;-74
2023/02/18 05:27:49;;;;;;;13.98;4.65;;;;;;;;;;5072252;28;20029;-74
2023/02/18 05:30:15;;;;;;;8.93;4.28;;;;;;;;;;5072883;28;20074;-74
2023/02/18 05:32:41;;;;;;;15.07;4.60;;;;;;;;;;5072804;28;20479;-74
2023/02/18 05:35:07;;;;;;;14.07;5.25;;;;;;;;;;5073136;28;20020;-75
2023/02/18 05:37:33;;;;;;;22.30;5.25;;;;;;;;;;5070790;28;20393;-74
2023/02/18 05:39:59;;;;;;;15.45;5.75;;;;;;;;;;5072635;28;20021;-74
2023/02/18 05:42:25;;;;;;;16.85;6.63;;;;;;;;;;5071522;28;20097;-73
2023/02/18 05:44:51;;;;;;;19.63;6.55;;;;;;;;;;5072422;28;20375;-74
2023/02/18 05:47:17;;;;;;;15.00;5.97;;;;;;;;;;5072330;28;20031;-74
2023/02/18 05:49:43;;;;;;;16.23;8.02;;;;;;;;;;5072067;28;20028;-74
2023/02/18 05:52:10;;;;;;;20.30;7.07;;;;;;;;;;5072799;28;20017;-74
2023/02/18 05:54:37;;;;;;;14.98;8.05;;;;;;;;;;5072132;28;20025;-74
2023/02/18 05:57:03;;;;;;;21.38;9.15;;;;;;;;;;5069168;28;20395;-74
2023/02/18 05:59:29;;;;;;;18.73;7.90;;;;;;;;;;5052075;28;20506;-75
2023/02/18 06:01:55;;;;;;;15.77;8.27;;;;;;;;;;5052239;28;20029;-75
2023/02/18 06:04:21;;;;;;;13.75;7.80;;;;;;;;;;5051212;28;20032;-74
2023/02/18 06:06:47;;;;;;;23.25;9.15;;;;;;;;;;5052330;28;20024;-75
2023/02/18 06:09:13;;;;;;;15.23;7.95;;;;;;;;;;5050204;28;20441;-75
2023/02/18 06:11:39;;;;;;;17.92;9.00;;;;;;;;;;5052086;28;20029;-74
2023/02/18 06:14:05;;;;;;;15.52;8.57;;;;;;;;;;5052282;28;20119;-75
2023/02/18 06:16:32;;;;;;;17.00;8.65;;;;;;;;;;5052182;28;20102;-77
2023/02/18 06:18:58;;;;;;;16.08;9.70;;;;;;;;;;5050470;28;20032;-75
2023/02/18 06:21:24;;;;;;;11.35;8.07;;;;;;;;;;5052328;28;20060;-75
2023/02/18 06:23:50;;;;;;;19.20;9.98;;;;;;;;;;5052304;28;20074;-74
2023/02/18 06:26:17;;;;;;;14.35;9.48;;;;;;;;;;5074118;28;20029;-75
2023/02/18 06:28:43;;;;;;;18.88;11.18;;;;;;;;;;5071181;28;20036;-73
2023/02/18 06:31:09;;;;;;;20.15;11.23;;;;;;;;;;5072514;28;20028;-75
2023/02/18 06:33:35;;;;;;;23.23;11.50;;;;;;;;;;5072648;28;20016;-74
2023/02/18 06:36:05;;;;;;;23.60;13.60;;;;;;;;;;5072473;28;20023;-75
2023/02/18 06:38:31;;;;;;;26.58;12.32;;;;;;;;;;5071955;28;20025;-75
2023/02/18 06:40:57;;;;;;;26.88;12.43;;;;;;;;;;5071331;28;20783;-75
2023/02/18 06:43:23;;;;;;;18.92;11.73;;;;;;;;;;5071261;28;20111;-75
2023/02/18 06:45:49;;;;;;;23.27;12.88;;;;;;;;;;5072684;28;20024;-74
2023/02/18 06:48:15;;;;;;;22.60;12.82;;;;;;;;;;5072240;28;20458;-75
2023/02/18 06:50:41;;;;;;;28.33;13.65;;;;;;;;;;5072930;28;20037;-74
2023/02/18 06:53:07;;;;;;;25.63;13.68;;;;;;;;;;5073513;28;20025;-74
2023/02/18 06:55:33;;;;;;;27.02;14.55;;;;;;;;;;5073834;28;20035;-75
2023/02/18 06:57:59;;;;;;;29.90;14.75;;;;;;;;;;5061146;28;20009;-75
2023/02/18 07:00:26;;;;;;;27.63;13.63;;;;;;;;;;5066898;22;20056;-74
2023/02/18 07:02:55;;;;;;;33.72;15.82;;;;;;;;;;5051963;28;20471;-77
2023/02/18 07:05:21;;;;;;;30.45;15.68;;;;;;;;;;5051355;28;20359;-76
2023/02/18 07:07:47;;;;;;;30.35;15.85;;;;;;;;;;5049287;28;20025;-75
2023/02/18 07:10:13;;;;;;;38.25;16.80;;;;;;;;;;5050118;28;20032;-75
2023/02/18 07:12:39;;;;;;;36.45;17.48;;;;;;;;;;5051216;28;20040;-76
2023/02/18 07:15:05;;;;;;;39.85;17.67;;;;;;;;;;5050101;28;20475;-77
2023/02/18 07:17:31;;;;;;;34.45;17.23;;;;;;;;;;5050313;28;20047;-76
2023/02/18 07:19:57;;;;;;;53.20;19.88;;;;;;;;;;5049627;28;20021;-77
2023/02/18 07:22:23;;;;;;;40.03;18.15;;;;;;;;;;5051245;28;20479;-76
2023/02/18 07:24:55;;;;;;;48.05;19.52;;;;;;;;;;5046613;28;20194;-75
2023/02/18 07:27:21;;;;;;;46.00;20.15;;;;;;;;;;5050707;28;20147;-74
2023/02/18 07:29:47;;;;;;;38.80;18.88;;;;;;;;;;5049846;28;20104;-76
2023/02/18 07:32:14;;;;;;;52.90;20.67;;;;;;;;;;5048706;28;20017;-74
2023/02/18 07:34:40;;;;;;;42.35;18.85;;;;;;;;;;5048887;28;20096;-74
2023/02/18 07:37:08;;;;;;;42.85;18.90;;;;;;;;;;5044177;28;20391;-73
2023/02/18 07:39:41;;;;;;;38.03;18.67;;;;;;;;;;5030969;28;20373;-75
2023/02/18 07:42:07;;;;;;;41.85;19.35;;;;;;;;;;5036174;28;20028;-75
2023/02/18 07:44:36;;;;;;;44.42;19.88;;;;;;;;;;5050743;28;20053;-74
2023/02/18 07:47:03;;;;;;;58.95;22.17;;;;;;;;;;5048927;28;20036;-74
2023/02/18 07:49:30;;;;;;;53.15;20.77;;;;;;;;;;5050525;28;20028;-74
2023/02/18 07:51:56;;;;;;;53.80;20.20;;;;;;;;;;5038639;28;20060;-76
2023/02/18 07:54:22;;;;;;;38.25;19.75;;;;;;;;;;5032532;28;20028;-74
2023/02/18 07:56:48;;;;;;;28.95;16.92;;;;;;;;;;5039172;28;20029;-75
2023/02/18 07:59:14;;;;;;;47.85;20.63;;;;;;;;;;5043686;28;20025;-75
2023/02/18 08:01:40;;;;;;;36.83;18.45;;;;;;;;;;5050601;28;20021;-75
2023/02/18 08:04:07;;;;;;;47.13;18.67;;;;;;;;;;5051045;28;20017;-75
2023/02/18 08:06:37;;;;;;;41.35;18.88;;;;;;;;;;5042822;28;20586;-75
2023/02/18 08:09:04;;;;;;;47.30;19.52;;;;;;;;;;5043068;28;20075;-75
2023/02/18 08:11:30;;;;;;;46.50;20.27;;;;;;;;;;5047631;28;20492;-76
2023/02/18 08:13:56;;;;;;;37.20;19.30;;;;;;;;;;5054605;28;20013;-75
2023/02/18 08:16:22;;;;;;;50.92;21.10;;;;;;;;;;5054868;28;20042;-75
2023/02/18 08:18:49;;;;;;;39.35;17.70;;;;;;;;;;5053774;28;20104;-75
2023/02/18 08:21:16;;;;;;;43.75;19.10;;;;;;;;;;5054082;28;20025;-75
2023/02/18 08:23:42;;;;;;;42.17;19.63;;;;;;;;;;5054822;28;20475;-75
2023/02/18 08:26:08;;;;;;;48.03;21.40;;;;;;;;;;5053148;28;20033;-75
2023/02/18 08:28:34;;;;;;;40.83;19.75;;;;;;;;;;5052005;28;20497;-74
2023/02/18 08:31:00;;;;;;;42.65;17.73;;;;;;;;;;5053917;28;20390;-74
2023/02/18 08:33:26;;;;;;;35.45;17.58;;;;;;;;;;5054144;28;20025;-75
2023/02/18 08:35:53;;;;;;;34.15;17.60;;;;;;;;;;5053028;28;20111;-74
2023/02/18 08:38:20;;;;;;;46.95;19.90;;;;;;;;;;5051998;28;20029;-74
2023/02/18 08:40:46;;;;;;;39.05;18.80;;;;;;;;;;5054500;28;20067;-75
2023/02/18 08:43:13;;;;;;;42.72;19.38;;;;;;;;;;5052225;28;20025;-75
2023/02/18 08:45:39;;;;;;;41.50;19.30;;;;;;;;;;5050442;28;20022;-74
2023/02/18 08:48:06;;;;;;;38.10;19.30;;;;;;;;;;5049968;28;20063;-75
2023/02/18 08:50:32;;;;;;;35.60;17.50;;;;;;;;;;5021199;28;20022;-73
2023/02/18 08:53:00;;;;;;;40.30;18.00;;;;;;;;;;5028250;28;20075;-74
2023/02/18 08:55:26;;;;;;;27.60;15.52;;;;;;;;;;5027974;28;20044;-74
2023/02/18 08:57:52;;;;;;;31.77;16.52;;;;;;;;;;5036523;28;20017;-73
2023/02/18 09:00:20;;;;;;;32.63;18.33;;;;;;;;;;5042912;28;20072;-74
2023/02/18 09:02:46;;;;;;;27.38;18.05;;;;;;;;;;5055034;28;20029;-75
2023/02/18 09:05:13;;;;;;;28.17;16.73;;;;;;;;;;5054803;28;20033;-75
2023/02/18 09:07:39;;;;;;;31.25;16.83;;;;;;;;;;5046547;28;20044;-74
2023/02/18 09:10:06;;;;;;;36.50;18.55;;;;;;;;;;5053226;28;20032;-74
2023/02/18 09:12:32;;;;;;;29.17;16.92;;;;;;;;;;5053581;28;20025;-74
2023/02/18 09:14:59;;;;;;;30.67;18.17;;;;;;;;;;5052394;28;20159;-73
2023/02/18 09:17:25;;;;;;;30.17;17.85;;;;;;;;;;5051724;28;20017;-73
2023/02/18 09:19:51;;;;;;;35.33;19.85;;;;;;;;;;5053991;28;20053;-73
2023/02/18 09:22:17;;;;;;;36.95;20.75;;;;;;;;;;5053897;28;20025;-74
2023/02/18 09:24:43;;;;;;;27.88;18.33;;;;;;;;;;5051048;28;20445;-73
2023/02/18 09:27:09;;;;;;;24.73;15.70;;;;;;;;;;5051249;28;20037;-72
2023/02/18 09:29:38;;;;;;;21.48;15.48;;;;;;;;;;5051582;28;20032;-74
2023/02/18 09:32:04;;;;;;;25.23;15.98;;;;;;;;;;5052150;28;20257;-73
2023/02/18 09:34:31;;;;;;;22.30;12.07;;;;;;;;;;5052183;28;20394;-73
2023/02/18 09:36:57;;;;;;;23.52;13.82;;;;;;;;;;5050861;28;20057;-76
2023/02/18 09:39:23;;;;;;;15.65;10.25;;;;;;;;;;5051570;28;20025;-74
2023/02/18 09:41:52;;;;;;;11.77;7.43;;;;;;;;;;5054051;28;20052;-74
2023/02/18 09:44:18;;;;;;;5.78;4.38;;;;;;;;;;5053768;28;20091;-73
2023/02/18 09:46:49;;;;;;;3.25;2.22;;;;;;;;;;5055537;28;20029;-74
2023/02/18 09:49:17;;;;;;;2.95;1.92;;;;;;;;;;5058193;28;20029;-74
2023/02/18 09:51:43;;;;;;;2.50;1.80;;;;;;;;;;5056479;28;20021;-74
2023/02/18 09:54:11;;;;;;;1.60;1.50;;;;;;;;;;5054040;28;20040;-72
2023/02/18 09:56:38;;;;;;;2.05;1.40;;;;;;;;;;5053542;28;20021;-73
2023/02/18 09:59:07;;;;;;;1.90;1.40;;;;;;;;;;5052316;28;20437;-74
2023/02/18 10:01:34;;;;;;;1.50;1.25;;;;;;;;;;5053480;28;20021;-72
2023/02/18 10:04:01;;;;;;;1.40;1.30;;;;;;;;;;5053514;28;20151;-74
2023/02/18 10:06:30;;;;;;;2.35;1.35;;;;;;;;;;5053544;28;20025;-74
2023/02/18 10:08:57;;;;;;;1.55;1.27;;;;;;;;;;5052276;28;20032;-73
2023/02/18 10:11:23;;;;;;;2.25;1.45;;;;;;;;;;5053036;28;20383;-73
2023/02/18 10:13:56;;;;;;;4.28;1.65;;;;;;;;;;5051884;28;20020;-74
2023/02/18 10:16:23;;;;;;;2.17;1.45;;;;;;;;;;5053140;28;20502;-72
2023/02/18 10:18:51;;;;;;;1.90;1.33;;;;;;;;;;5052153;28;20497;-73
2023/02/18 10:21:20;;;;;;;3.13;1.65;;;;;;;;;;5051162;28;20021;-74
2023/02/18 10:23:55;;;;;;;2.15;1.40;;;;;;;;;;5052155;28;20513;-73
2023/02/18 10:26:21;;;;;;;1.33;1.23;;;;;;;;;;5050507;28;20123;-73
2023/02/18 10:28:48;;;;;;;1.15;1.05;;;;;;;;;;5050801;28;20029;-73
2023/02/18 10:31:18;;;;;;;1.30;1.10;;;;;;;;;;5051988;28;20105;-74
2023/02/18 10:33:47;;;;;;;1.23;1.15;;;;;;;;;;5052026;28;20013;-74
2023/02/18 10:36:24;;;;;;;2.63;1.73;;;;;;;;;;5049820;28;20469;-73
2023/02/18 10:39:00;;;;;;;1.17;0.90;;;;;;;;;;5050619;28;20402;-73
2023/02/18 10:41:49;;;;;;;1.92;1.23;;;;;;;;;;5052577;28;20028;-73
2023/02/18 10:44:28;;;;;;;1.90;1.30;;;;;;;;;;5052475;28;20399;-73
2023/02/18 10:47:09;;;;;;;1.00;0.75;;;;;;;;;;5051044;28;20025;-73
2023/02/18 10:49:35;;;;;;;;;;;;;;;;;;5052655;28;20025;-73
2023/02/18 10:52:02;;;;;;;1.17;0.95;;;;;;;;;;5052269;28;19916;-73
2023/02/18 10:54:47;;;;;;;3.67;0.90;;;;;;;;;;5051059;28;20022;-75
2023/02/18 10:57:17;;;;;;;0.85;0.85;;;;;;;;;;5051548;28;20167;-73
2023/02/18 10:59:50;;;;;;;3.80;0.90;;;;;;;;;;5052034;28;20127;-73
2023/02/18 11:02:17;;;;;;;0.73;0.73;;;;;;;;;;5052166;28;20025;-74
2023/02/18 11:04:44;;;;;;;1.48;0.80;;;;;;;;;;5052539;28;20020;-74
2023/02/18 11:07:21;;;;;;;1.95;0.93;;;;;;;;;;5051373;28;20029;-73
2023/02/18 11:09:46;;;;;;;1.45;0.77;;;;;;;;;;5051201;28;20021;-74
2023/02/18 11:12:14;;;;;;;2.58;0.90;;;;;;;;;;5052701;28;20028;-73
2023/02/18 11:14:45;;;;;;;0.70;0.50;;;;;;;;;;5052885;28;20021;-73
2023/02/18 11:17:36;;;;;;;1.48;0.70;;;;;;;;;;5050436;28;20021;-75
2023/02/18 11:20:18;;;;;;;1.00;0.70;;;;;;;;;;5045439;28;20033;-74
2023/02/18 11:22:44;;;;;;;1.27;0.35;;;;;;;;;;5052186;28;20033;-73
2023/02/18 11:25:19;;;;;;;1.77;0.30;;;;;;;;;;5051744;28;20051;-73
2023/02/18 11:27:48;;;;;;;3.75;0.60;;;;;;;;;;5050866;28;20036;-73
2023/02/18 11:30:21;;;;;;;1.95;0.45;;;;;;;;;;5051775;28;20089;-73
2023/02/18 11:32:49;;;;;;;0.63;0.35;;;;;;;;;;5051693;28;20479;-74
2023/02/18 11:35:19;;;;;;;0.60;0.45;;;;;;;;;;5051940;28;20028;-74
2023/02/18 11:37:45;;;;;;;1.25;0.65;;;;;;;;;;5050807;28;20131;-74
2023/02/18 11:40:44;;;;;;;0.43;0.40;;;;;;;;;;5051491;28;20091;-74
2023/02/18 11:43:10;;;;;;;2.22;0.60;;;;;;;;;;5018537;28;20061;-75
2023/02/18 11:45:36;;;;;;;0.57;0.40;;;;;;;;;;5050575;28;20036;-75
2023/02/18 11:48:07;;;;;;;0.93;0.30;;;;;;;;;;5050847;28;20033;-75
2023/02/18 11:50:34;;;;;;;1.05;0.30;;;;;;;;;;5050632;28;20025;-75
2023/02/18 11:53:00;;;;;;;0.75;0.45;;;;;;;;;;5050872;28;20025;-73
2023/02/18 11:55:29;;;;;;;0.85;0.47;;;;;;;;;;5052231;28;20017;-72
2023/02/18 11:57:59;;;;;;;0.60;0.40;;;;;;;;;;5051954;28;20040;-73
2023/02/18 12:00:31;;;;;;;1.02;0.60;;;;;;;;;;5057326;28;20048;-73
2023/02/18 12:02:59;;;;;;;1.27;0.40;;;;;;;;;;5054324;28;20394;-72
2023/02/18 12:05:26;;;;;;;0.60;0.60;;;;;;;;;;5052419;28;20067;-72
2023/02/18 12:07:57;;;;;;;0.52;0.47;;;;;;;;;;5051011;28;20029;-73
2023/02/18 12:10:29;;;;;;;0.50;0.50;;;;;;;;;;5050632;28;20032;-72
2023/02/18 12:12:55;;;;;;;2.78;0.80;;;;;;;;;;5050884;28;20021;-73
2023/02/18 12:15:29;;;;;;;1.00;0.75;;;;;;;;;;5049563;28;20021;-73
2023/02/18 12:18:04;;;;;;;1.65;0.80;;;;;;;;;;5050482;28;20017;-73
2023/02/18 12:20:42;;;;;;;1.08;0.90;;;;;;;;;;5051023;28;20025;-73
2023/02/18 12:23:17;;;;;;;1.42;0.80;;;;;;;;;;5050898;28;20481;-73
2023/02/18 12:25:52;;;;;;;1.80;1.30;;;;;;;;;;5049621;28;20025;-73
2023/02/18 12:28:36;;;;;;;3.55;1.15;;;;;;;;;;5049955;28;20159;-73
2023/02/18 12:31:16;;;;;;;1.83;1.27;;;;;;;;;;5049276;28;20047;-73
2023/02/18 12:33:49;;;;;;;1.25;1.13;;;;;;;;;;5050851;28;20029;-73
2023/02/18 12:36:30;;;;;;;1.63;1.38;;;;;;;;;;5050684;28;20021;-73
2023/02/18 12:39:15;;;;;;;1.48;1.20;;;;;;;;;;5049616;28;20537;-72
2023/02/18 12:41:47;;;;;;;2.80;1.60;;;;;;;;;;5050686;28;20280;-73
2023/02/18 12:44:31;;;;;;;1.80;1.30;;;;;;;;;;5050561;28;20028;-73
2023/02/18 12:47:16;;;;;;;2.47;1.80;;;;;;;;;;5050436;28;20029;-72
2023/02/18 12:50:01;;;;;;;2.40;1.70;;;;;;;;;;5053781;28;20403;-73
2023/02/18 12:52:46;;;;;;;1.67;1.58;;;;;;;;;;5057628;28;20025;-74
2023/02/18 12:55:24;;;;;;;2.60;1.85;;;;;;;;;;5052651;28;20028;-73
2023/02/18 12:58:09;;;;;;;2.88;1.90;;;;;;;;;;5050504;28;20112;-73
2023/02/18 13:00:47;;;;;;;2.35;2.15;;;;;;;;;;5078835;22;20053;-76
2023/02/18 13:03:19;;;;;;;2.40;1.65;;;;;;;;;;5054460;28;20021;-79
2023/02/18 13:05:45;;;;;;;3.72;2.03;;;;;;;;;;5054112;28;20552;-78
2023/02/18 13:08:11;;;;;;;2.88;1.85;;;;;;;;;;5053506;28;20472;-76
2023/02/18 13:10:43;;;;;;;1.60;1.50;;;;;;;;;;5054097;28;20040;-79
2023/02/18 13:13:12;;;;;;;1.60;1.40;;;;;;;;;;5054165;28;20479;-78
2023/02/18 13:15:38;;;;;;;1.25;1.05;;;;;;;;;;5052725;28;20033;-78
2023/02/18 13:18:08;;;;;;;1.70;1.38;;;;;;;;;;5053270;28;20099;-78
2023/02/18 13:20:38;;;;;;;1.02;0.88;;;;;;;;;;5053973;28;20079;-78
2023/02/18 13:23:04;;;;;;;1.23;0.98;;;;;;;;;;5053957;28;20075;-78
2023/02/18 13:25:34;;;;;;;1.10;1.00;;;;;;;;;;5054058;28;20315;-78
2023/02/18 13:28:08;;;;;;;1.55;0.82;;;;;;;;;;5051881;28;20116;-78
2023/02/18 13:30:50;;;;;;;1.38;1.02;;;;;;;;;;5053998;28;20021;-76
2023/02/18 13:33:28;;;;;;;1.10;0.80;;;;;;;;;;5053154;28;20029;-78
2023/02/18 13:35:58;;;;;;;0.95;0.70;;;;;;;;;;5053703;28;20506;-79
2023/02/18 13:38:24;;;;;;;1.00;0.73;;;;;;;;;;5053144;28;20320;-78
2023/02/18 13:40:50;;;;;;;1.75;0.93;;;;;;;;;;5053477;28;20028;-79
2023/02/18 13:43:32;;;;;;;1.77;1.25;;;;;;;;;;5053884;28;20039;-79
2023/02/18 13:46:08;;;;;;;2.55;1.30;;;;;;;;;;5053278;28;20025;-79
2023/02/18 13:48:39;;;;;;;1.00;0.80;;;;;;;;;;5053628;28;20025;-80
2023/02/18 13:51:06;;;;;;;1.88;1.05;;;;;;;;;;5055227;28;20395;-77
2023/02/18 13:53:35;;;;;;;1.48;0.90;;;;;;;;;;5053654;28;20048;-78
2023/02/18 13:56:01;;;;;;;3.33;1.20;;;;;;;;;;5053627;28;20048;-79
2023/02/18 13:58:33;;;;;;;2.25;0.90;;;;;;;;;;5053169;28;20025;-77
2023/02/18 14:01:25;;;;;;;1.77;0.70;;;;;;;;;;5052994;28;20048;-78
2023/02/18 14:03:53;;;;;;;0.77;0.77;;;;;;;;;;5038605;28;20033;-79
2023/02/18 14:06:24;;;;;;;3.92;0.95;;;;;;;;;;5053455;28;20017;-78
2023/02/18 14:08:51;;;;;;;2.30;0.63;;;;;;;;;;5052874;28;20021;-78
2023/02/18 14:11:25;;;;;;;4.05;0.98;;;;;;;;;;5054229;28;20017;-78
2023/02/18 14:13:54;;;;;;;1.85;0.90;;;;;;;;;;5053881;28;20024;-78
2023/02/18 14:16:21;;;;;;;1.05;0.95;;;;;;;;;;5062025;28;20025;-78
2023/02/18 14:18:47;;;;;;;1.05;0.95;;;;;;;;;;5074588;28;20028;-79
2023/02/18 14:21:13;;;;;;;1.98;0.80;;;;;;;;;;5072590;28;20050;-75
2023/02/18 14:23:40;;;;;;;1.85;0.77;;;;;;;;;;5071889;28;20021;-78
2023/02/18 14:26:15;;;;;;;2.58;0.68;;;;;;;;;;5056484;28;20024;-77
2023/02/18 14:28:50;;;;;;;1.17;0.98;;;;;;;;;;5052697;28;20017;-77
2023/02/18 14:31:28;;;;;;;1.15;0.85;;;;;;;;;;5052911;28;20467;-78
2023/02/18 14:34:12;;;;;;;1.63;0.60;;;;;;;;;;5053181;28;20025;-77
2023/02/18 14:36:57;;;;;;;1.75;0.80;;;;;;;;;;5052754;28;20021;-78
2023/02/18 14:39:28;;;;;;;2.20;0.80;;;;;;;;;;5052530;28;20049;-77
2023/02/18 14:42:18;;;;;;;2.08;0.82;;;;;;;;;;5052902;28;20028;-78
2023/02/18 14:44:44;;;;;;;1.15;0.90;;;;;;;;;;5052857;28;20368;-78